Time;durP1;ratioP1;P1;durP2;ratioP2;P2;SDS_P1;SDS_P2;PMS_P1;PMS_P2;Temp;Humidity;BMP_temperature;BMP_pressure;BME280_temperature;BME280_humidity;BME280_pressure;Samples;Min_cycle;Max_cycle;Signal;HPM_P1;HPM_P2
2022/12/05 00:00:50;;;;;;;113.35;42.47;;;3.00;99.90;;;;;;5104942;28;20262;-82
2022/12/05 00:03:21;;;;;;;122.22;44.55;;;2.70;99.90;;;;;;5106693;28;20201;-82
2022/12/05 00:05:48;;;;;;;113.57;43.75;;;3.00;99.90;;;;;;5106641;28;20210;-82
2022/12/05 00:08:15;;;;;;;145.60;47.35;;;3.00;99.90;;;;;;5105300;28;20257;-82
2022/12/05 00:10:42;;;;;;;130.98;45.67;;;3.00;99.90;;;;;;5105561;28;20182;-81
2022/12/05 00:13:09;;;;;;;113.55;43.00;;;3.10;99.90;;;;;;5105568;28;20210;-82
2022/12/05 00:15:37;;;;;;;141.38;46.63;;;2.90;99.90;;;;;;5105370;28;20205;-82
2022/12/05 00:18:04;;;;;;;133.30;49.25;;;3.50;99.90;;;;;;5108471;28;20218;-82
2022/12/05 00:20:32;;;;;;;113.97;44.42;;;2.80;99.90;;;;;;5110633;28;20687;-82
2022/12/05 00:23:00;;;;;;;137.70;47.80;;;3.00;99.90;;;;;;5107411;28;20304;-82
2022/12/05 00:25:27;;;;;;;123.18;45.22;;;3.00;99.90;;;;;;5110785;28;20232;-82
2022/12/05 00:27:54;;;;;;;125.45;44.55;;;3.00;99.90;;;;;;5111183;28;20250;-82
2022/12/05 00:30:20;;;;;;;125.78;47.67;;;3.00;99.90;;;;;;5113546;28;20261;-82
2022/12/05 00:32:47;;;;;;;140.82;46.65;;;3.00;99.90;;;;;;5112961;28;20218;-82
2022/12/05 00:35:14;;;;;;;123.90;46.13;;;3.40;99.90;;;;;;5110258;28;20197;-82
2022/12/05 00:37:43;;;;;;;134.45;46.58;;;3.10;99.90;;;;;;5107854;28;20654;-82
2022/12/05 00:40:10;;;;;;;124.55;44.53;;;4.60;99.90;;;;;;5111021;28;20212;-82
2022/12/05 00:42:37;;;;;;;126.20;44.90;;;3.10;99.90;;;;;;5110022;28;20202;-82
2022/12/05 00:45:04;;;;;;;132.07;46.55;;;3.00;99.90;;;;;;5109606;28;20229;-81
2022/12/05 00:47:34;;;;;;;130.95;46.72;;;3.10;99.90;;;;;;5106985;28;20240;-81
2022/12/05 00:50:01;;;;;;;142.60;47.05;;;;;;;;;;5106699;28;20237;-81
2022/12/05 00:52:28;;;;;;;126.55;46.53;;;3.10;99.90;;;;;;5105885;28;20245;-81
2022/12/05 00:54:56;;;;;;;138.75;46.65;;;3.00;99.90;;;;;;5104688;28;20202;-82
2022/12/05 00:57:23;;;;;;;126.13;44.92;;;3.20;99.90;;;;;;5105083;28;20620;-82
2022/12/05 00:59:50;;;;;;;127.03;47.15;;;3.10;99.90;;;;;;5105335;28;20201;-82
2022/12/05 01:02:17;;;;;;;132.80;43.45;;;3.10;99.90;;;;;;5105186;28;20202;-82
2022/12/05 01:04:44;;;;;;;138.20;43.20;;;2.70;99.90;;;;;;5104329;28;20286;-82
2022/12/05 01:07:11;;;;;;;120.05;45.35;;;3.10;99.90;;;;;;5104118;28;20228;-82
2022/12/05 01:09:37;;;;;;;134.45;45.95;;;3.00;99.90;;;;;;5104773;28;20265;-82
2022/12/05 01:12:06;;;;;;;116.28;45.63;;;3.10;99.90;;;;;;5107037;28;20214;-82
2022/12/05 01:14:33;;;;;;;111.05;45.30;;;3.10;99.90;;;;;;5108976;28;20262;-81
2022/12/05 01:17:00;;;;;;;123.07;44.38;;;3.10;99.90;;;;;;5109016;28;20232;-81
2022/12/05 01:19:30;;;;;;;117.78;43.50;;;3.10;99.90;;;;;;5108469;28;20222;-82
2022/12/05 01:21:57;;;;;;;117.82;43.78;;;2.80;99.90;;;;;;5109160;28;20293;-81
2022/12/05 01:24:26;;;;;;;129.25;45.17;;;3.00;99.90;;;;;;5109796;28;20237;-82
2022/12/05 01:26:53;;;;;;;110.70;43.35;;;3.10;99.90;;;;;;5109936;28;20662;-81
2022/12/05 01:29:23;;;;;;;112.55;42.63;;;3.30;99.90;;;;;;5110154;28;20261;-81
2022/12/05 01:31:50;;;;;;;127.05;44.47;;;3.10;99.90;;;;;;5109065;28;20285;-81
2022/12/05 01:34:18;;;;;;;129.75;44.88;;;2.80;99.90;;;;;;5108869;28;20293;-80
2022/12/05 01:36:46;;;;;;;125.32;43.70;;;3.30;99.90;;;;;;5116434;28;20256;-81
2022/12/05 01:39:13;;;;;;;118.10;45.40;;;3.10;99.90;;;;;;5119044;28;20293;-81
2022/12/05 01:41:42;;;;;;;128.88;45.35;;;3.10;99.90;;;;;;5119301;28;20198;-81
2022/12/05 01:44:48;;;;;;;158.10;47.10;;;3.10;99.90;;;;;;5111927;28;20285;-82
2022/12/05 01:47:18;;;;;;;131.90;43.60;;;3.10;99.90;;;;;;5116861;28;20233;-81
2022/12/05 01:49:45;;;;;;;125.53;43.67;;;3.10;99.90;;;;;;5110284;28;20190;-81
2022/12/05 01:52:16;;;;;;;129.43;44.17;;;3.10;99.90;;;;;;5109339;28;20585;-81
2022/12/05 01:54:48;;;;;;;115.53;43.55;;;3.10;99.90;;;;;;5108342;28;20249;-81
2022/12/05 01:57:15;;;;;;;122.18;45.05;;;3.00;99.90;;;;;;5108158;28;20268;-82
2022/12/05 01:59:46;;;;;;;118.50;42.35;;;2.80;99.90;;;;;;5108528;28;20233;-82
2022/12/05 02:02:13;;;;;;;118.25;42.22;;;2.80;99.90;;;;;;5108643;28;20601;-81
2022/12/05 02:04:57;;;;;;;126.28;43.53;;;3.10;99.90;;;;;;5108704;28;20209;-82
2022/12/05 02:07:24;;;;;;;114.82;43.47;;;;;;;;;;5108994;28;20285;-82
2022/12/05 02:09:51;;;;;;;118.63;43.83;;;3.00;99.90;;;;;;5109477;28;20288;-81
2022/12/05 02:12:20;;;;;;;127.30;47.22;;;3.10;99.90;;;;;;5109505;28;20249;-82
2022/12/05 02:14:55;;;;;;;126.18;44.20;;;3.20;99.90;;;;;;5109152;28;20264;-82
2022/12/05 02:17:32;;;;;;;123.88;43.53;;;3.10;99.90;;;;;;5109041;28;20285;-81
2022/12/05 02:20:32;;;;;;;121.63;42.00;;;3.20;99.90;;;;;;5108665;28;20208;-82
2022/12/05 02:23:27;;;;;;;106.38;38.72;;;3.10;99.90;;;;;;5107758;28;20183;-83
2022/12/05 02:26:19;;;;;;;122.95;45.15;;;3.10;99.90;;;;;;5108567;28;20218;-82
2022/12/05 02:29:30;;;;;;;130.50;44.67;;;3.20;99.90;;;;;;5107398;28;20221;-82
2022/12/05 02:32:05;;;;;;;129.50;45.20;;;3.40;99.90;;;;;;5107410;28;20214;-82
2022/12/05 02:34:41;;;;;;;138.82;43.58;;;2.80;99.90;;;;;;5106939;28;20245;-81
2022/12/05 02:37:12;;;;;;;138.82;48.28;;;3.30;99.90;;;;;;5105873;28;20232;-81
2022/12/05 02:39:46;;;;;;;114.88;43.90;;;3.00;99.90;;;;;;5105820;28;20194;-81
2022/12/05 02:42:18;;;;;;;122.50;43.97;;;3.00;99.90;;;;;;5107080;28;20277;-82
2022/12/05 02:44:50;;;;;;;122.78;45.58;;;3.30;99.90;;;;;;5107207;28;20206;-80
2022/12/05 02:47:23;;;;;;;136.10;44.05;;;3.20;99.90;;;;;;5107495;28;20230;-82
2022/12/05 02:49:51;;;;;;;108.88;42.05;;;3.70;99.90;;;;;;5107604;28;20281;-82
2022/12/05 02:52:19;;;;;;;129.77;43.70;;;3.30;99.90;;;;;;5108062;28;20249;-82
2022/12/05 02:54:49;;;;;;;126.45;45.15;;;3.10;99.90;;;;;;5107204;28;20209;-81
2022/12/05 02:57:17;;;;;;;121.75;44.80;;;2.80;99.90;;;;;;5108008;28;20218;-83
2022/12/05 02:59:44;;;;;;;130.90;46.45;;;2.80;99.90;;;;;;5106888;28;20221;-82
2022/12/05 03:02:26;;;;;;;111.95;41.47;;;3.10;99.90;;;;;;5106446;28;20236;-83
2022/12/05 03:04:55;;;;;;;93.35;39.95;;;3.10;99.90;;;;;;5114822;28;20233;-80
2022/12/05 03:07:25;;;;;;;113.28;39.97;;;3.20;99.90;;;;;;5106892;28;20233;-80
2022/12/05 03:09:56;;;;;;;117.50;39.58;;;3.40;99.90;;;;;;5098227;28;20202;-81
2022/12/05 03:12:26;;;;;;;103.93;38.92;;;3.00;99.90;;;;;;5101365;28;20297;-81
2022/12/05 03:14:57;;;;;;;105.25;43.05;;;3.10;99.90;;;;;;5101677;28;20715;-82
2022/12/05 03:17:30;;;;;;;103.55;41.70;;;2.80;99.90;;;;;;5105907;28;20224;-81
2022/12/05 03:20:03;;;;;;;96.70;35.65;;;3.20;99.90;;;;;;5107182;28;20229;-83
2022/12/05 03:22:35;;;;;;;106.55;38.95;;;3.10;99.90;;;;;;5107249;28;20276;-81
2022/12/05 03:25:03;;;;;;;98.28;38.90;;;3.10;99.90;;;;;;5106497;28;20216;-83
2022/12/05 03:27:38;;;;;;;105.88;38.75;;;3.20;99.90;;;;;;5105405;28;20221;-83
2022/12/05 03:30:08;;;;;;;106.13;39.67;;;3.10;99.90;;;;;;5105562;28;20205;-81
2022/12/05 03:32:41;;;;;;;88.03;36.42;;;3.40;99.90;;;;;;5106566;28;20266;-83
2022/12/05 03:35:15;;;;;;;102.72;36.17;;;3.20;99.90;;;;;;5105881;28;20190;-83
2022/12/05 03:37:47;;;;;;;88.28;38.40;;;3.20;99.90;;;;;;5106200;28;20226;-83
2022/12/05 03:40:26;;;;;;;93.47;37.08;;;2.90;99.90;;;;;;5105319;28;20186;-82
2022/12/05 03:42:58;;;;;;;105.35;38.35;;;3.10;99.90;;;;;;5105034;28;20707;-82
2022/12/05 03:45:33;;;;;;;98.10;36.95;;;3.20;99.90;;;;;;5107641;28;20186;-82
2022/12/05 03:48:13;;;;;;;102.43;37.72;;;3.20;99.90;;;;;;5136715;22;20352;-83
2022/12/05 03:50:43;;;;;;;91.25;35.97;;;3.10;99.90;;;;;;5109157;28;20201;-85
2022/12/05 03:53:14;;;;;;;99.13;35.55;;;3.20;99.90;;;;;;5105619;28;20277;-86
2022/12/05 03:55:43;;;;;;;114.18;39.00;;;3.10;99.90;;;;;;5104314;28;20175;-86
2022/12/05 03:58:15;;;;;;;261.33;96.78;;;3.10;99.90;;;;;;5104705;28;20265;-86
2022/12/05 04:00:47;;;;;;;99.30;39.15;;;3.10;99.90;;;;;;5105199;28;20229;-86
2022/12/05 04:03:20;;;;;;;110.22;37.28;;;3.10;99.90;;;;;;5104113;28;20201;-85
2022/12/05 04:05:50;;;;;;;99.20;37.63;;;3.20;99.90;;;;;;5104444;28;20217;-85
2022/12/05 04:08:23;;;;;;;87.63;35.30;;;3.00;99.90;;;;;;5110781;28;20294;-84
2022/12/05 04:10:53;;;;;;;98.50;37.10;;;3.10;99.90;;;;;;5104563;28;20223;-85
2022/12/05 04:13:33;;;;;;;92.55;38.38;;;3.20;99.90;;;;;;5101848;28;20232;-85
2022/12/05 04:18:58;;;;;;;102.90;38.72;;;3.20;99.90;;;;;;5101976;28;20243;-86
2022/12/05 04:21:38;;;;;;;85.82;34.20;;;3.20;99.90;;;;;;5118279;28;20184;-85
2022/12/05 04:27:04;;;;;;;88.82;35.72;;;3.10;99.90;;;;;;5106695;28;20680;-86
2022/12/05 04:29:34;;;;;;;97.22;37.60;;;3.10;99.90;;;;;;5106804;28;20197;-85
2022/12/05 04:32:09;;;;;;;88.57;35.70;;;3.40;99.90;;;;;;5107465;28;20218;-86
2022/12/05 04:34:39;;;;;;;92.13;36.50;;;2.60;99.90;;;;;;5105759;28;20205;-85
2022/12/05 04:37:12;;;;;;;87.85;34.25;;;3.40;99.90;;;;;;5103011;28;20252;-84
2022/12/05 04:39:45;;;;;;;97.05;35.15;;;3.60;99.90;;;;;;5102270;28;20194;-86
2022/12/05 04:42:17;;;;;;;93.73;38.20;;;3.10;99.90;;;;;;5100057;28;20437;-86
2022/12/05 04:45:00;;;;;;;103.53;37.42;;;3.10;99.90;;;;;;5101073;28;20439;-85
2022/12/05 04:47:31;;;;;;;89.20;34.22;;;2.90;99.90;;;;;;5103082;28;20779;-86
2022/12/05 04:50:01;;;;;;;91.55;33.88;;;3.20;99.90;;;;;;5104870;28;20189;-86
2022/12/05 04:52:31;;;;;;;94.13;34.22;;;3.20;99.90;;;;;;5104169;28;20228;-87
2022/12/05 04:55:03;;;;;;;76.68;31.95;;;3.20;99.90;;;;;;5105140;28;20248;-85
2022/12/05 04:57:36;;;;;;;82.03;32.83;;;3.20;99.90;;;;;;5104182;28;20228;-86
2022/12/05 05:00:05;;;;;;;86.28;35.78;;;2.20;99.90;;;;;;5103585;28;20525;-86
2022/12/05 05:02:37;;;;;;;85.60;34.83;;;3.20;99.90;;;;;;5103470;28;20198;-85
2022/12/05 05:05:11;;;;;;;86.57;36.00;;;3.10;99.90;;;;;;5104710;28;20239;-86
2022/12/05 05:07:45;;;;;;;73.10;31.83;;;3.20;99.90;;;;;;5116799;28;20275;-84
2022/12/05 05:10:16;;;;;;;69.85;32.30;;;4.10;99.90;;;;;;5117412;28;20197;-83
2022/12/05 05:12:43;;;;;;;74.50;34.13;;;3.20;99.90;;;;;;5111341;28;20222;-86
2022/12/05 05:15:11;;;;;;;78.63;34.17;;;3.20;99.90;;;;;;5104908;28;20672;-86
2022/12/05 05:17:38;;;;;;;81.05;33.00;;;3.10;99.90;;;;;;5104007;28;20237;-86
2022/12/05 05:20:26;;;;;;;67.70;31.45;;;3.80;99.90;;;;;;5104583;28;20228;-85
2022/12/05 05:22:54;;;;;;;66.55;30.20;;;3.20;99.90;;;;;;5105224;28;20182;-87
2022/12/05 05:25:22;;;;;;;73.35;31.10;;;3.40;99.90;;;;;;5102369;28;20212;-87
2022/12/05 05:27:50;;;;;;;69.05;31.13;;;3.20;99.90;;;;;;5103547;28;20668;-86
2022/12/05 05:30:19;;;;;;;63.47;29.60;;;4.00;99.90;;;;;;5102519;28;20205;-86
2022/12/05 05:32:46;;;;;;;71.65;28.23;;;3.20;99.90;;;;;;5103503;28;20234;-86
2022/12/05 05:35:15;;;;;;;86.88;31.30;;;2.60;99.90;;;;;;5105639;28;20197;-86
2022/12/05 05:37:42;;;;;;;73.07;31.07;;;3.30;99.90;;;;;;5106192;28;20549;-85
2022/12/05 05:40:12;;;;;;;74.13;30.42;;;3.20;99.90;;;;;;5103979;28;20484;-87
2022/12/05 05:42:43;;;;;;;75.90;32.88;;;3.30;99.90;;;;;;5105803;28;20205;-86
2022/12/05 05:45:12;;;;;;;63.55;29.10;;;3.20;99.90;;;;;;5109172;28;20209;-86
2022/12/05 05:47:39;;;;;;;56.08;30.27;;;3.20;99.90;;;;;;5105182;28;20252;-86
2022/12/05 05:50:08;;;;;;;56.20;25.67;;;3.10;99.90;;;;;;5105524;28;20323;-86
2022/12/05 05:52:38;;;;;;;69.78;31.48;;;3.20;99.90;;;;;;5103758;28;20221;-86
2022/12/05 05:55:07;;;;;;;56.05;25.58;;;2.90;99.90;;;;;;5103018;28;20210;-86
2022/12/05 05:57:35;;;;;;;55.53;26.52;;;3.30;99.90;;;;;;5103346;28;20222;-86
2022/12/05 06:00:06;;;;;;;57.17;27.77;;;3.30;99.90;;;;;;5105930;28;20217;-84
2022/12/05 06:02:37;;;;;;;60.05;26.52;;;3.20;99.90;;;;;;5114296;28;20213;-84
2022/12/05 06:05:06;;;;;;;52.10;25.25;;;2.80;99.90;;;;;;5107359;28;20190;-86
2022/12/05 06:11:15;;;;;;;52.95;24.98;;;3.30;99.90;;;;;;5062935;26;20214;-84
2022/12/05 06:14:01;;;;;;;51.08;24.83;;;;;;;;;;5072771;28;20310;-84
2022/12/05 06:16:30;;;;;;;52.55;24.25;;;;;;;;;;5082870;28;20214;-86
2022/12/05 06:19:00;;;;;;;47.35;23.02;;;;;;;;;;5101621;28;20233;-82
2022/12/05 06:21:27;;;;;;;57.67;23.73;;;3.40;99.90;;;;;;5117587;22;20287;-80
2022/12/05 06:23:55;;;;;;;55.33;25.73;;;3.20;99.90;;;;;;5109136;28;20186;-83
2022/12/05 06:26:23;;;;;;;52.80;24.75;;;3.10;99.90;;;;;;5109546;28;20206;-81
2022/12/05 06:28:51;;;;;;;39.45;22.30;;;3.30;99.90;;;;;;5108557;28;20293;-82
2022/12/05 06:31:21;;;;;;;43.10;22.27;;;3.20;99.90;;;;;;5105953;28;20249;-82
2022/12/05 06:33:49;;;;;;;49.42;24.35;;;4.30;99.90;;;;;;5088520;28;20221;-81
2022/12/05 06:36:18;;;;;;;52.53;24.10;;;3.60;99.90;;;;;;5088396;28;20278;-82
2022/12/05 06:38:45;;;;;;;55.78;24.13;;;3.40;99.90;;;;;;5087085;28;20265;-82
2022/12/05 06:41:15;;;;;;;43.33;23.45;;;2.90;99.90;;;;;;5087655;28;20266;-82
2022/12/05 06:43:42;;;;;;;44.08;21.88;;;3.10;99.90;;;;;;5088746;28;20209;-81
2022/12/05 06:46:13;;;;;;;36.90;20.73;;;3.20;99.90;;;;;;5087928;28;20274;-81
2022/12/05 06:48:40;;;;;;;39.40;23.13;;;3.40;99.90;;;;;;5088537;28;20269;-81
2022/12/05 06:51:10;;;;;;;58.53;24.48;;;3.40;99.90;;;;;;5092382;28;20245;-82
2022/12/05 06:53:37;;;;;;;43.80;23.42;;;3.30;99.90;;;;;;5095330;28;20238;-81
2022/12/05 06:56:07;;;;;;;48.85;23.15;;;3.30;99.90;;;;;;5089671;28;20237;-81
2022/12/05 06:58:34;;;;;;;43.28;23.70;;;3.30;99.90;;;;;;5088343;28;20202;-81
2022/12/05 07:03:48;;;;;;;42.05;22.50;;;3.20;99.90;;;;;;5088214;28;20182;-82
2022/12/05 07:06:16;;;;;;;40.05;21.50;;;3.00;99.90;;;;;;5089267;28;20294;-81
2022/12/05 07:08:43;;;;;;;43.78;22.55;;;3.30;99.90;;;;;;5087065;28;20274;-81
2022/12/05 07:11:10;;;;;;;49.00;22.60;;;3.50;99.90;;;;;;5087539;28;20207;-82
2022/12/05 07:13:37;;;;;;;48.70;22.15;;;3.20;99.90;;;;;;5088578;28;20292;-81
2022/12/05 07:16:05;;;;;;;41.17;19.95;;;3.40;99.90;;;;;;5088474;28;20241;-81
2022/12/05 07:18:32;;;;;;;50.00;23.13;;;3.20;99.90;;;;;;5087530;28;20206;-81
2022/12/05 07:21:02;;;;;;;40.25;22.15;;;3.60;99.90;;;;;;5087912;28;20209;-81
2022/12/05 07:23:29;;;;;;;48.10;21.20;;;3.30;99.90;;;;;;5087568;28;20289;-82
2022/12/05 07:25:57;;;;;;;43.30;21.80;;;3.20;99.90;;;;;;5087592;28;20270;-82
2022/12/05 07:28:24;;;;;;;51.55;22.17;;;3.50;99.90;;;;;;5088193;28;20198;-83
2022/12/05 07:30:59;;;;;;;44.10;21.45;;;3.20;99.90;;;;;;5088103;28;20226;-83
2022/12/05 07:33:26;;;;;;;45.15;22.42;;;3.30;99.90;;;;;;5087353;28;20696;-83
2022/12/05 07:35:53;;;;;;;46.33;22.98;;;3.20;99.90;;;;;;5087622;28;20661;-83
2022/12/05 07:38:21;;;;;;;46.15;22.55;;;3.80;99.90;;;;;;5090699;28;20198;-82
2022/12/05 07:40:48;;;;;;;41.72;21.02;;;3.50;99.90;;;;;;5093834;28;20303;-82
2022/12/05 07:43:14;;;;;;;48.17;22.85;;;3.30;99.90;;;;;;5091752;28;20310;-81
2022/12/05 07:45:41;;;;;;;42.53;23.13;;;3.40;99.90;;;;;;5088192;28;20278;-81
2022/12/05 07:48:08;;;;;;;51.95;24.13;;;3.30;99.90;;;;;;5086560;28;20226;-82
2022/12/05 07:50:36;;;;;;;40.42;21.85;;;3.00;99.90;;;;;;5086716;28;20680;-82
2022/12/05 07:53:03;;;;;;;38.08;23.42;;;3.30;99.90;;;;;;5087777;28;20309;-81
2022/12/05 07:55:31;;;;;;;46.55;22.30;;;;;;;;;;5094247;28;20293;-84
2022/12/05 07:57:58;;;;;;;50.40;23.90;;;3.30;99.90;;;;;;5095806;28;20224;-83
2022/12/05 08:00:25;;;;;;;41.92;21.70;;;3.50;99.90;;;;;;5096384;28;20262;-83
2022/12/05 08:02:52;;;;;;;47.85;23.20;;;3.40;99.90;;;;;;5096078;28;20260;-84
2022/12/05 08:05:19;;;;;;;42.38;21.17;;;;;;;;;;5095800;28;20250;-84
2022/12/05 08:07:46;;;;;;;38.30;19.48;;;3.30;99.90;;;;;;5093392;28;20198;-83
2022/12/05 08:10:12;;;;;;;35.05;19.20;;;3.20;99.90;;;;;;5089435;28;20266;-84
2022/12/05 08:12:41;;;;;;;42.25;19.80;;;3.40;99.90;;;;;;5089780;28;20252;-83
2022/12/05 08:15:09;;;;;;;41.33;22.13;;;3.30;99.90;;;;;;5089316;28;20290;-84
2022/12/05 08:17:36;;;;;;;40.38;21.08;;;;;;;;;;5090045;28;20230;-84
2022/12/05 08:20:03;;;;;;;44.47;21.70;;;3.30;99.90;;;;;;5089239;28;20209;-84
2022/12/05 08:22:30;;;;;;;41.75;21.92;;;3.30;99.90;;;;;;5088125;28;20325;-83
2022/12/05 08:24:57;;;;;;;40.70;21.83;;;3.30;99.90;;;;;;5088259;28;20201;-83
2022/12/05 08:27:24;;;;;;;40.05;21.10;;;3.30;99.90;;;;;;5088884;28;20203;-83
2022/12/05 08:29:54;;;;;;;44.05;22.23;;;3.40;99.90;;;;;;5088598;28;20290;-83
2022/12/05 08:32:21;;;;;;;39.30;20.58;;;;;;;;;;5089242;28;20224;-84
2022/12/05 08:34:48;;;;;;;41.33;21.48;;;3.30;99.90;;;;;;5088803;28;20222;-83
2022/12/05 08:37:15;;;;;;;39.63;21.02;;;;;;;;;;5088969;28;20198;-83
2022/12/05 08:39:42;;;;;;;38.17;21.05;;;;;;;;;;5090189;28;20230;-84
2022/12/05 08:42:09;;;;;;;36.58;19.67;;;;;;;;;;5089429;28;20222;-83
2022/12/05 08:44:36;;;;;;;43.60;18.73;;;3.00;99.90;;;;;;5090289;28;20203;-85
2022/12/05 08:47:04;;;;;;;41.75;20.20;;;3.30;99.90;;;;;;5095440;28;20206;-86
2022/12/05 08:49:32;;;;;;;34.40;19.25;;;;;;;;;;5091539;28;20214;-84
2022/12/05 08:52:06;;;;;;;43.00;20.80;;;;;;;;;;5085247;28;20700;-84
2022/12/05 08:54:38;;;;;;;45.70;20.30;;;;;;;;;;5085699;28;20275;-85
2022/12/05 08:57:09;;;;;;;39.90;20.73;;;;;;;;;;5087039;28;20199;-84
2022/12/05 08:59:36;;;;;;;38.83;18.30;;;3.30;99.90;;;;;;5084370;28;20197;-85
2022/12/05 09:02:19;;;;;;;42.83;20.02;;;;;;;;;;5085301;28;20252;-84
2022/12/05 09:04:51;;;;;;;49.30;24.13;;;;;;;;;;5084498;28;20183;-87
2022/12/05 09:07:22;;;;;;;37.22;19.65;;;;;;;;;;5083791;28;20209;-85
2022/12/05 09:09:55;;;;;;;39.28;19.45;;;;;;;;;;5087861;28;20206;-84
2022/12/05 09:12:23;;;;;;;34.83;18.52;;;;;;;;;;5095500;28;20223;-84
2022/12/05 09:14:51;;;;;;;40.05;21.45;;;;;;;;;;5087453;28;20307;-84
2022/12/05 09:17:19;;;;;;;32.22;18.30;;;3.40;99.90;;;;;;5090731;28;20255;-84
2022/12/05 09:19:50;;;;;;;34.15;18.50;;;3.30;99.90;;;;;;5095429;28;20250;-84
2022/12/05 09:22:17;;;;;;;41.85;21.38;;;3.90;99.90;;;;;;5096737;28;20238;-84
2022/12/05 09:24:44;;;;;;;38.35;19.35;;;;;;;;;;5097049;28;20210;-84
2022/12/05 09:27:14;;;;;;;36.65;19.00;;;;;;;;;;5097201;28;20213;-84
2022/12/05 09:29:41;;;;;;;33.60;17.85;;;;;;;;;;5097561;28;20218;-83
2022/12/05 09:32:08;;;;;;;32.13;17.13;;;;;;;;;;5096525;28;20226;-83
2022/12/05 09:35:10;;;;;;;36.03;18.40;;;3.30;99.90;;;;;;5100617;28;20277;-85
2022/12/05 09:37:39;;;;;;;36.47;17.65;;;;;;;;;;5065934;28;20190;-84
2022/12/05 09:40:29;;;;;;;37.92;18.60;;;;;;;;;;5100631;28;20209;-84
2022/12/05 09:43:19;;;;;;;37.50;19.20;;;3.40;99.90;;;;;;5100837;28;20215;-84
2022/12/05 09:46:00;;;;;;;34.75;18.23;;;3.40;99.90;;;;;;5094595;28;20260;-85
2022/12/05 09:48:29;;;;;;;37.35;18.50;;;;;;;;;;5090843;28;20191;-84
2022/12/05 09:51:39;;;;;;;31.13;19.23;;;3.50;99.90;;;;;;5091942;28;20256;-85
2022/12/05 09:54:09;;;;;;;33.83;17.70;;;;;;;;;;5088912;28;20226;-85
2022/12/05 09:56:39;;;;;;;40.33;18.42;;;;;;;;;;5090368;28;20207;-85
2022/12/05 09:59:14;;;;;;;38.33;19.70;;;3.40;99.90;;;;;;5088564;28;20203;-85
2022/12/05 10:01:48;;;;;;;34.00;16.98;;;3.40;99.90;;;;;;5089254;28;20226;-84
2022/12/05 10:04:47;;;;;;;39.28;20.40;;;3.40;99.90;;;;;;5089127;28;20595;-83
2022/12/05 10:07:22;;;;;;;34.38;19.10;;;3.40;99.90;;;;;;5091329;28;20732;-83
2022/12/05 10:10:03;;;;;;;47.38;22.90;;;3.40;99.90;;;;;;5108462;28;20195;-84
2022/12/05 10:12:47;;;;;;;41.55;20.20;;;3.40;99.90;;;;;;5107166;28;20236;-84
2022/12/05 10:15:20;;;;;;;41.15;20.42;;;3.50;99.90;;;;;;5108897;28;20297;-85
2022/12/05 10:17:55;;;;;;;42.22;20.95;;;3.50;99.90;;;;;;5112877;28;20193;-84
2022/12/05 10:20:27;;;;;;;32.47;19.73;;;3.50;99.90;;;;;;5117827;28;20177;-84
2022/12/05 10:22:58;;;;;;;36.97;20.65;;;3.40;99.90;;;;;;5119902;28;20238;-84
2022/12/05 10:25:30;;;;;;;34.15;20.92;;;3.50;99.90;;;;;;5118672;28;20202;-83
2022/12/05 10:28:03;;;;;;;37.42;18.42;;;3.60;99.90;;;;;;5119374;28;20212;-84
2022/12/05 10:30:34;;;;;;;38.10;21.05;;;3.50;99.90;;;;;;5119227;28;20264;-84
2022/12/05 10:33:04;;;;;;;36.55;21.50;;;3.40;99.90;;;;;;5109682;28;20226;-85
2022/12/05 10:35:34;;;;;;;38.78;19.90;;;3.50;99.90;;;;;;5107975;28;20504;-84
2022/12/05 10:38:11;;;;;;;33.38;17.98;;;3.50;99.90;;;;;;5108006;28;20209;-84
2022/12/05 10:40:41;;;;;;;32.72;20.30;;;3.60;99.90;;;;;;5107429;28;20190;-84
2022/12/05 10:43:13;;;;;;;42.05;21.63;;;3.60;99.90;;;;;;5108035;28;20264;-84
2022/12/05 10:45:43;;;;;;;29.77;18.60;;;3.60;99.90;;;;;;5110209;28;20223;-84
2022/12/05 10:48:12;;;;;;;29.08;18.10;;;3.70;99.90;;;;;;5118471;28;20186;-84
2022/12/05 10:50:42;;;;;;;31.60;18.25;;;3.60;99.90;;;;;;5116065;28;20276;-84
2022/12/05 10:53:18;;;;;;;33.22;19.15;;;3.70;99.90;;;;;;5109982;28;20221;-84
2022/12/05 10:56:11;;;;;;;36.55;20.23;;;;;;;;;;5111151;28;20248;-84
2022/12/05 10:58:56;;;;;;;37.95;20.52;;;3.60;99.90;;;;;;5107108;28;20229;-84
2022/12/05 11:01:58;;;;;;;30.27;17.17;;;3.60;99.90;;;;;;5104933;28;20316;-85
2022/12/05 11:04:39;;;;;;;33.90;21.42;;;;;;;;;;5089719;28;20212;-84
2022/12/05 11:07:38;;;;;;;37.45;20.70;;;3.60;99.90;;;;;;5103150;28;20596;-85
2022/12/05 11:10:54;;;;;;;36.95;21.67;;;3.70;99.90;;;;;;5104365;28;20198;-84
2022/12/05 11:13:28;;;;;;;39.85;20.13;;;;;;;;;;5111136;28;20236;-84
2022/12/05 11:16:12;;;;;;;36.50;20.02;;;;;;;;;;5118660;28;20217;-84
2022/12/05 11:18:47;;;;;;;35.25;20.17;;;;;;;;;;5106376;28;20201;-84
2022/12/05 11:21:25;;;;;;;38.28;21.10;;;;;;;;;;5105865;28;20225;-85
2022/12/05 11:23:52;;;;;;;31.33;18.90;;;3.70;99.90;;;;;;5104588;28;20591;-84
2022/12/05 11:26:33;;;;;;;34.58;19.67;;;3.80;99.90;;;;;;5104390;28;20202;-84
2022/12/05 11:29:10;;;;;;;39.15;23.02;;;3.40;99.90;;;;;;5105382;28;20182;-84
2022/12/05 11:31:40;;;;;;;35.72;20.92;;;3.90;99.90;;;;;;5104507;28;20236;-84
2022/12/05 11:34:22;;;;;;;39.42;23.33;;;3.50;99.90;;;;;;5105165;28;20225;-84
2022/12/05 11:37:02;;;;;;;36.65;21.38;;;3.60;99.90;;;;;;5115312;28;20193;-84
2022/12/05 11:39:30;;;;;;;38.13;19.67;;;;;;;;;;5113910;28;20267;-84
2022/12/05 11:42:21;;;;;;;38.13;21.25;;;3.60;99.90;;;;;;5108577;28;20233;-84
2022/12/05 11:45:28;;;;;;;40.58;22.80;;;3.70;99.90;;;;;;5106668;28;20198;-84
2022/12/05 11:48:23;;;;;;;37.30;20.80;;;3.60;99.90;;;;;;5105813;28;20651;-86
2022/12/05 11:51:18;;;;;;;47.08;22.05;;;3.70;99.90;;;;;;5105740;28;20214;-84
2022/12/05 11:54:12;;;;;;;37.25;20.85;;;3.80;99.90;;;;;;5104825;28;20194;-84
2022/12/05 11:56:44;;;;;;;38.78;21.13;;;3.80;99.90;;;;;;5106142;28;20189;-84
2022/12/05 11:59:40;;;;;;;37.25;21.33;;;3.70;99.90;;;;;;5107426;28;20182;-85
2022/12/05 12:02:19;;;;;;;37.83;21.52;;;3.80;99.90;;;;;;5104807;28;20700;-85
2022/12/05 12:05:03;;;;;;;41.17;23.52;;;3.60;99.90;;;;;;5106360;28;20253;-85
2022/12/05 12:07:49;;;;;;;48.40;24.60;;;3.70;99.90;;;;;;5105918;28;20190;-83
2022/12/05 12:10:26;;;;;;;42.75;20.88;;;4.00;99.90;;;;;;5107032;28;20188;-86
2022/12/05 12:13:04;;;;;;;45.65;21.85;;;3.60;99.90;;;;;;5105857;28;20751;-84
2022/12/05 12:16:00;;;;;;;43.90;23.08;;;3.70;99.90;;;;;;5106828;28;20306;-86
2022/12/05 12:19:02;;;;;;;43.50;21.73;;;4.00;99.90;;;;;;5102852;28;20209;-85
2022/12/05 12:22:12;;;;;;;51.78;25.48;;;3.60;99.90;;;;;;5128762;22;20333;-84
2022/12/05 12:32:09;;;;;;;42.47;23.08;;;3.70;99.90;;;;;;4872964;29;20235;-85
2022/12/05 12:35:08;;;;;;;49.60;24.60;;;;;;;;;;4925473;29;20259;-85
2022/12/05 13:06:59;;;;;;;74.63;37.05;;;3.80;99.90;;;;;;4808141;29;20204;-86
2022/12/05 13:09:31;;;;;;;55.88;25.60;;;3.80;99.90;;;;;;5002472;22;20259;-84
2022/12/05 13:12:04;;;;;;;58.60;30.00;;;3.70;99.90;;;;;;5132413;28;20284;-84
2022/12/05 13:14:33;;;;;;;57.03;27.27;;;3.80;99.90;;;;;;5132683;28;20266;-84
2022/12/05 13:17:02;;;;;;;78.22;32.40;;;3.70;99.90;;;;;;5132085;28;20239;-84
2022/12/05 13:19:36;;;;;;;56.92;28.05;;;3.80;99.90;;;;;;5120346;28;20222;-85
2022/12/05 13:22:05;;;;;;;54.45;28.67;;;;;;;;;;5108085;28;20201;-84
2022/12/05 13:24:34;;;;;;;58.67;27.95;;;;;;;;;;5107661;28;20260;-84
2022/12/05 13:27:08;;;;;;;62.40;30.88;;;3.90;99.90;;;;;;5111265;28;20233;-85
2022/12/05 13:29:39;;;;;;;61.40;26.25;;;3.80;99.90;;;;;;5119914;28;20233;-84
2022/12/05 13:32:30;;;;;;;61.70;29.70;;;3.90;99.90;;;;;;5119765;28;20193;-84
2022/12/05 13:35:02;;;;;;;69.43;30.30;;;;;;;;;;5119651;28;20302;-84
2022/12/05 13:43:23;;;;;;;68.47;32.33;;;4.00;99.90;;;;;;5107112;28;20316;-84
2022/12/05 13:46:05;;;;;;;75.78;31.58;;;4.10;99.90;;;;;;5107273;28;20194;-85
2022/12/05 13:48:37;;;;;;;80.53;35.35;;;4.00;99.90;;;;;;5107162;28;20186;-84
2022/12/05 13:51:22;;;;;;;60.00;29.83;;;;;;;;;;5106976;28;20191;-85
2022/12/05 13:54:09;;;;;;;79.78;32.83;;;4.00;99.90;;;;;;5094920;28;20210;-85
2022/12/05 13:56:53;;;;;;;65.60;29.90;;;4.00;99.90;;;;;;5106838;28;20216;-85
2022/12/05 14:00:00;;;;;;;61.50;30.13;;;4.00;99.90;;;;;;5104457;28;20218;-85
2022/12/05 14:02:49;;;;;;;72.78;27.45;;;4.00;99.90;;;;;;5109496;28;20205;-84
2022/12/05 14:05:46;;;;;;;64.75;30.25;;;4.00;99.90;;;;;;5107256;28;20198;-83
2022/12/05 14:09:02;;;;;;;69.45;30.80;;;3.80;99.90;;;;;;5106407;28;20206;-85
2022/12/05 14:11:32;;;;;;;67.03;29.30;;;;;;;;;;5107120;28;20290;-85
2022/12/05 14:14:17;;;;;;;69.15;31.20;;;;;;;;;;5108468;28;20290;-85